Terminal Aerodrome Forecast
Issued by NWS Twin Cities, MN

Home | Current Version | Previous Version | Graphics & Text | Print | Product List | Glossary On
Versions: 1 2 3 4 5 6 7 8 9 10 11 12 13 14 15 16 17 18 19 20 21 22 23 24 25
220
FTUS43 KMPX 050843 AAA
TAFMSP
TAF AMD
KMSP 050843Z 0509/0612 16004KT P6SM SCT250
     FM051200 19005KT P6SM SCT090 BKN120
     FM051900 22009KT P6SM SCT120=

USA.gov is the U.S. government's official web portal to all federal, state and local government web resources and services.